createdAt,value
2022-08-07T00:00:15.275Z,15.02
2022-08-07T00:02:45.602Z,15.07
2022-08-07T00:05:12.701Z,15.07
2022-08-07T00:07:41.159Z,14.97
2022-08-07T00:10:27.256Z,14.92
2022-08-07T00:12:59.953Z,15.06
2022-08-07T00:15:36.208Z,14.95
2022-08-07T00:18:05.931Z,14.94
2022-08-07T00:20:35.449Z,14.87
2022-08-07T00:23:02.747Z,15.11
2022-08-07T00:25:41.220Z,15.02
2022-08-07T00:28:08.515Z,15.02
2022-08-07T00:30:37.502Z,15.19
2022-08-07T00:33:05.289Z,15.11
2022-08-07T00:35:35.176Z,15.00
2022-08-07T00:38:04.569Z,14.87
2022-08-07T00:40:36.312Z,14.91
2022-08-07T00:43:09.730Z,14.90
2022-08-07T00:45:39.613Z,14.77
2022-08-07T00:48:10.926Z,14.92
2022-08-07T00:50:51.039Z,14.97
2022-08-07T00:53:20.627Z,14.80
2022-08-07T00:56:02.401Z,14.84
2022-08-07T00:58:32.559Z,14.95
2022-08-07T01:01:00.173Z,14.71
2022-08-07T01:03:57.126Z,14.92
2022-08-07T01:06:14.211Z,14.99
2022-08-07T01:08:52.077Z,14.84
2022-08-07T01:12:10.117Z,14.85
2022-08-07T01:14:09.127Z,14.88
2022-08-07T01:16:36.890Z,14.75
2022-08-07T01:19:07.311Z,14.92
2022-08-07T01:21:47.422Z,14.72
2022-08-07T01:24:21.173Z,14.61
2022-08-07T01:26:52.256Z,14.81
2022-08-07T01:29:23.129Z,14.92
2022-08-07T01:31:52.632Z,14.86
2022-08-07T01:34:20.396Z,14.78
2022-08-07T01:36:58.758Z,14.89
2022-08-07T01:39:41.047Z,14.88
2022-08-07T01:42:58.598Z,14.78
2022-08-07T01:45:36.217Z,14.80
2022-08-07T01:48:29.856Z,14.76
2022-08-07T01:51:24.398Z,14.83
2022-08-07T01:54:09.456Z,14.73
2022-08-07T01:56:54.361Z,14.82
2022-08-07T01:59:30.812Z,14.71
2022-08-07T02:02:06.470Z,14.74
2022-08-07T02:04:52.567Z,14.73
2022-08-07T02:07:36.166Z,14.65
2022-08-07T02:10:23.768Z,14.76
2022-08-07T02:12:51.636Z,14.77
2022-08-07T02:15:28.244Z,14.75
2022-08-07T02:17:57.374Z,14.65
2022-08-07T02:20:29.073Z,14.69
2022-08-07T02:23:00.084Z,14.65
2022-08-07T02:26:10.405Z,14.53
2022-08-07T02:28:25.442Z,14.64
2022-08-07T02:30:59.092Z,14.61
2022-08-07T02:33:32.784Z,14.53
2022-08-07T02:36:27.065Z,14.72
2022-08-07T02:39:00.305Z,14.45
2022-08-07T02:41:36.963Z,14.66
2022-08-07T02:44:05.768Z,14.50
2022-08-07T02:46:36.855Z,14.41
2022-08-07T02:49:05.699Z,14.44
2022-08-07T02:51:42.768Z,14.48
2022-08-07T02:54:20.369Z,14.58
2022-08-07T02:56:48.896Z,14.35
2022-08-07T02:59:19.819Z,14.44
2022-08-07T03:01:55.267Z,14.39
2022-08-07T03:04:25.633Z,14.28
2022-08-07T03:06:54.214Z,14.24
2022-08-07T03:09:43.495Z,14.25
2022-08-07T03:12:21.832Z,14.39
2022-08-07T03:14:56.235Z,14.35
2022-08-07T03:17:23.710Z,14.26
2022-08-07T03:19:55.532Z,14.32
2022-08-07T03:22:29.512Z,14.33
2022-08-07T03:24:59.976Z,14.35
2022-08-07T03:27:41.997Z,14.39
2022-08-07T03:30:17.482Z,14.34
2022-08-07T03:32:59.251Z,14.23
2022-08-07T03:35:43.815Z,14.26
2022-08-07T03:38:21.025Z,14.32
2022-08-07T03:40:57.250Z,14.20
2022-08-07T03:43:26.902Z,14.26
2022-08-07T03:46:02.832Z,14.36
2022-08-07T03:48:31.810Z,14.33
2022-08-07T03:51:00.619Z,14.41
2022-08-07T03:54:32.735Z,14.43
2022-08-07T03:56:33.472Z,14.38
2022-08-07T03:59:09.151Z,14.25
2022-08-07T04:01:45.564Z,14.21
2022-08-07T04:04:17.893Z,14.34
2022-08-07T04:06:50.953Z,14.30
2022-08-07T04:09:23.092Z,14.08
2022-08-07T04:12:25.547Z,14.20
2022-08-07T04:14:43.861Z,14.14
2022-08-07T04:17:20.175Z,14.15
2022-08-07T04:19:52.481Z,14.13
2022-08-07T04:22:27.607Z,14.11
2022-08-07T04:25:00.870Z,14.11
2022-08-07T04:27:35.519Z,14.16
2022-08-07T04:30:13.419Z,14.18
2022-08-07T04:32:58.362Z,14.08
2022-08-07T04:35:26.381Z,14.08
2022-08-07T04:38:03.503Z,14.08
2022-08-07T04:40:52.970Z,14.27
2022-08-07T04:44:12.241Z,14.28
2022-08-07T04:46:34.519Z,14.34
2022-08-07T04:49:29.429Z,14.33
2022-08-07T04:52:30.852Z,14.55
2022-08-07T04:55:01.674Z,14.59
2022-08-07T04:58:32.132Z,14.60
2022-08-07T05:00:47.812Z,14.82
2022-08-07T05:04:00.920Z,14.80
2022-08-07T05:06:28.263Z,14.89
2022-08-07T05:09:43.421Z,14.78
2022-08-07T05:12:27.115Z,14.86
2022-08-07T05:15:23.382Z,14.85
2022-08-07T05:18:16.659Z,15.01
2022-08-07T05:20:48.034Z,14.99
2022-08-07T05:23:23.226Z,15.02
2022-08-07T05:26:12.899Z,15.06
2022-08-07T05:28:50.395Z,15.24
2022-08-07T05:31:35.103Z,15.13
2022-08-07T05:34:11.062Z,15.20
2022-08-07T05:36:43.623Z,15.10
2022-08-07T05:40:13.365Z,14.94
2022-08-07T05:42:34.315Z,15.13
2022-08-07T05:45:25.829Z,15.02
2022-08-07T05:48:01.198Z,15.17
2022-08-07T05:50:39.405Z,15.02
2022-08-07T05:54:12.183Z,14.92
2022-08-07T05:56:03.774Z,14.98
2022-08-07T05:58:39.162Z,14.98
2022-08-07T06:01:11.152Z,15.05
2022-08-07T06:03:57.211Z,14.76
2022-08-07T06:06:32.763Z,14.78
2022-08-07T06:09:04.639Z,14.72
2022-08-07T06:11:34.887Z,14.74
2022-08-07T06:14:13.067Z,14.36
2022-08-07T06:16:56.241Z,14.49
2022-08-07T06:19:47.886Z,14.83
2022-08-07T06:22:24.010Z,15.06
2022-08-07T06:25:13.835Z,15.01
2022-08-07T06:27:44.115Z,14.94
2022-08-07T06:30:35.597Z,14.97
2022-08-07T06:33:16.684Z,14.99
2022-08-07T06:36:06.786Z,15.10
2022-08-07T06:38:51.669Z,15.15
2022-08-07T06:42:07.140Z,15.32
2022-08-07T06:44:52.791Z,15.05
2022-08-07T06:47:22.315Z,15.49
2022-08-07T06:49:51.136Z,15.62
2022-08-07T06:52:31.429Z,15.73
2022-08-07T06:55:31.421Z,15.55
2022-08-07T06:58:03.141Z,15.69
2022-08-07T07:00:38.195Z,15.62
2022-08-07T07:03:08.801Z,15.99
2022-08-07T07:06:03.579Z,16.04
2022-08-07T07:08:31.085Z,16.45
2022-08-07T07:11:00.950Z,16.36
2022-08-07T07:13:58.548Z,16.82
2022-08-07T07:16:45.225Z,16.40
2022-08-07T07:19:56.078Z,16.65
2022-08-07T07:22:33.943Z,16.89
2022-08-07T07:25:14.286Z,16.54
2022-08-07T07:28:07.770Z,16.93
2022-08-07T07:31:02.144Z,16.54
2022-08-07T07:33:32.766Z,16.96
2022-08-07T07:36:05.405Z,16.77
2022-08-07T07:38:41.543Z,16.44
2022-08-07T07:41:14.458Z,16.68
2022-08-07T07:44:14.218Z,16.49
2022-08-07T07:46:53.503Z,16.29
2022-08-07T07:50:35.612Z,16.35
2022-08-07T07:52:09.874Z,16.86
2022-08-07T07:54:37.634Z,16.24
2022-08-07T07:57:07.709Z,16.53
2022-08-07T07:59:52.030Z,16.46
2022-08-07T08:02:34.250Z,16.37
2022-08-07T08:05:11.499Z,16.38
2022-08-07T08:07:51.529Z,16.62
2022-08-07T08:10:37.763Z,16.68
2022-08-07T08:13:10.638Z,16.07
2022-08-07T08:15:59.098Z,16.14
2022-08-07T08:18:29.680Z,16.82
2022-08-07T08:21:00.399Z,16.79
2022-08-07T08:23:48.799Z,16.69
2022-08-07T08:26:37.831Z,16.74
2022-08-07T08:29:06.788Z,16.87
2022-08-07T08:32:17.092Z,16.55
2022-08-07T08:34:35.601Z,17.10
2022-08-07T08:37:09.982Z,16.29
2022-08-07T08:39:54.668Z,16.91
2022-08-07T08:42:35.488Z,17.20
2022-08-07T08:45:18.881Z,17.15
2022-08-07T08:48:04.299Z,17.34
2022-08-07T08:50:39.564Z,17.29
2022-08-07T08:53:19.771Z,16.94
2022-08-07T08:55:59.155Z,17.30
2022-08-07T08:58:50.651Z,17.58
2022-08-07T09:02:02.876Z,17.46
2022-08-07T09:04:43.836Z,16.70
2022-08-07T09:07:46.249Z,17.58
2022-08-07T09:10:48.691Z,17.79
2022-08-07T09:13:42.174Z,17.29
2022-08-07T09:16:20.276Z,17.25
2022-08-07T09:19:51.418Z,17.20
2022-08-07T09:24:29.364Z,18.19
2022-08-07T09:25:27.262Z,18.23
2022-08-07T09:28:04.044Z,18.07
2022-08-07T09:30:54.568Z,18.53
2022-08-07T09:33:58.211Z,18.17
2022-08-07T09:36:53.955Z,18.18
2022-08-07T09:39:53.833Z,18.57
2022-08-07T09:42:42.273Z,19.13
2022-08-07T09:46:28.720Z,18.82
2022-08-07T09:48:14.665Z,19.13
2022-08-07T09:51:14.758Z,18.82
2022-08-07T09:54:03.276Z,18.56
2022-08-07T09:57:05.222Z,18.72
2022-08-07T09:59:35.650Z,18.67
2022-08-07T10:02:55.599Z,18.80
2022-08-07T10:06:11.998Z,18.82
2022-08-07T10:08:57.998Z,18.66
2022-08-07T10:12:02.400Z,18.98
2022-08-07T10:14:41.893Z,18.96
2022-08-07T10:18:02.682Z,19.33
2022-08-07T10:20:44.485Z,18.32
2022-08-07T10:24:05.582Z,19.30
2022-08-07T10:26:53.127Z,19.49
2022-08-07T10:29:45.894Z,19.72
2022-08-07T10:32:52.440Z,19.60
2022-08-07T10:35:56.281Z,19.44
2022-08-07T10:38:48.180Z,19.79
2022-08-07T10:41:46.383Z,20.10
2022-08-07T10:44:28.276Z,20.18
2022-08-07T10:47:55.015Z,20.41
2022-08-07T10:50:50.749Z,21.00
2022-08-07T10:53:28.258Z,20.55
2022-08-07T10:56:30.887Z,19.98
2022-08-07T10:59:21.632Z,21.54
2022-08-07T11:02:33.073Z,21.69
2022-08-07T11:05:49.100Z,21.10
2022-08-07T11:08:39.056Z,20.21
2022-08-07T11:11:11.656Z,20.79
2022-08-07T11:14:43.773Z,20.94
2022-08-07T11:17:01.095Z,21.17
2022-08-07T11:19:58.514Z,21.01
2022-08-07T11:22:48.396Z,20.27
2022-08-07T11:25:23.306Z,20.68
2022-08-07T11:28:15.621Z,21.29
2022-08-07T11:30:46.531Z,21.66
2022-08-07T11:33:55.397Z,22.61
2022-08-07T11:36:40.616Z,22.64
2022-08-07T11:39:19.956Z,22.72
2022-08-07T11:42:03.515Z,22.75
2022-08-07T11:44:52.791Z,22.98
2022-08-07T11:48:03.365Z,22.96
2022-08-07T11:50:57.729Z,22.19
2022-08-07T11:54:15.905Z,20.78
2022-08-07T11:57:02.213Z,21.33
2022-08-07T12:00:10.820Z,21.36
2022-08-07T12:02:52.460Z,21.85
2022-08-07T12:05:47.490Z,22.06
2022-08-07T12:08:37.930Z,21.63
2022-08-07T12:11:20.649Z,21.97
2022-08-07T12:14:12.814Z,22.62
2022-08-07T12:16:55.157Z,22.02
2022-08-07T12:20:03.335Z,20.94
2022-08-07T12:22:55.901Z,21.03
2022-08-07T12:26:21.817Z,20.68
2022-08-07T12:29:12.992Z,20.86
2022-08-07T12:32:04.829Z,21.78
2022-08-07T12:34:36.033Z,22.40
2022-08-07T12:37:08.768Z,21.53
2022-08-07T12:39:51.006Z,21.85
2022-08-07T12:42:27.621Z,22.12
2022-08-07T12:44:58.260Z,22.60
2022-08-07T12:47:40.547Z,22.64
2022-08-07T12:50:34.310Z,21.97
2022-08-07T12:53:19.106Z,22.52
2022-08-07T12:56:03.959Z,21.87
2022-08-07T12:58:39.526Z,21.83
2022-08-07T13:01:55.676Z,21.81
2022-08-07T13:04:32.684Z,22.15
2022-08-07T13:08:12.215Z,21.72
2022-08-07T13:10:52.633Z,21.93
2022-08-07T13:13:57.612Z,21.77
2022-08-07T13:16:41.427Z,21.68
2022-08-07T13:19:21.849Z,21.75
2022-08-07T13:22:12.798Z,21.80
2022-08-07T13:24:56.884Z,21.39
2022-08-07T13:28:11.127Z,22.03
2022-08-07T13:30:40.387Z,21.81
2022-08-07T13:34:33.060Z,22.00
2022-08-07T13:36:40.491Z,21.92
2022-08-07T13:39:49.827Z,21.56
2022-08-07T13:42:10.294Z,20.97
2022-08-07T13:44:39.714Z,22.01
2022-08-07T13:47:16.011Z,22.18
2022-08-07T13:50:32.783Z,22.19
2022-08-07T13:52:47.059Z,22.43
2022-08-07T13:55:19.572Z,21.87
2022-08-07T13:58:28.067Z,21.47
2022-08-07T14:01:09.108Z,21.41
2022-08-07T14:04:07.774Z,21.94
2022-08-07T14:06:37.131Z,21.75
2022-08-07T14:09:10.032Z,21.41
2022-08-07T14:12:07.425Z,21.90
2022-08-07T14:14:45.732Z,21.85
2022-08-07T14:18:12.949Z,21.77
2022-08-07T14:20:39.904Z,22.04
2022-08-07T14:23:31.385Z,22.41
2022-08-07T14:26:28.422Z,21.46
2022-08-07T14:29:10.538Z,21.62
2022-08-07T14:31:56.627Z,22.13
2022-08-07T14:34:31.770Z,21.79
2022-08-07T14:37:03.402Z,22.14
2022-08-07T14:40:15.934Z,22.81
2022-08-07T14:42:32.415Z,22.63
2022-08-07T14:45:21.598Z,22.44
2022-08-07T14:50:47.206Z,21.67
2022-08-07T14:59:14.060Z,22.44
2022-08-07T15:04:52.908Z,22.66
2022-08-07T15:07:23.788Z,22.81
2022-08-07T15:10:17.891Z,23.21
2022-08-07T15:13:06.380Z,22.98
2022-08-07T15:15:40.718Z,22.84
2022-08-07T15:18:33.847Z,22.82
2022-08-07T15:21:08.289Z,22.29
2022-08-07T15:25:14.364Z,22.42
2022-08-07T15:26:49.372Z,21.80
2022-08-07T15:32:11.729Z,22.09
2022-08-07T15:35:02.978Z,21.77
2022-08-07T15:38:17.861Z,21.40
2022-08-07T15:40:33.975Z,21.52
2022-08-07T15:43:53.175Z,21.35
2022-08-07T15:49:13.330Z,21.55
2022-08-07T15:54:39.307Z,21.33
2022-08-07T15:57:27.787Z,21.52
2022-08-07T16:00:04.092Z,21.53
2022-08-07T16:02:41.300Z,21.21
2022-08-07T16:05:18.097Z,21.15
2022-08-07T16:08:30.743Z,20.88
2022-08-07T16:11:02.972Z,20.74
2022-08-07T16:14:22.146Z,20.55
2022-08-07T16:17:14.896Z,20.43
2022-08-07T16:20:33.785Z,20.70
2022-08-07T16:23:55.040Z,20.50
2022-08-07T16:26:31.194Z,20.64
2022-08-07T16:30:09.952Z,20.55
2022-08-07T16:32:33.198Z,20.51
2022-08-07T16:35:51.661Z,20.36
2022-08-07T16:39:00.706Z,20.14
2022-08-07T16:42:04.083Z,20.26
2022-08-07T16:45:14.395Z,20.02
2022-08-07T16:48:02.532Z,20.13
2022-08-07T16:51:21.057Z,20.05
2022-08-07T16:54:06.103Z,19.66
2022-08-07T16:56:53.491Z,19.64
2022-08-07T16:59:52.280Z,19.37
2022-08-07T17:02:53.547Z,18.97
2022-08-07T17:06:19.003Z,18.29
2022-08-07T17:12:04.016Z,17.13
2022-08-07T17:14:42.673Z,16.48
2022-08-07T17:17:46.019Z,15.71
2022-08-07T17:20:30.844Z,15.79
2022-08-07T17:23:16.840Z,15.53
2022-08-07T17:26:24.209Z,15.34
2022-08-07T17:28:58.088Z,15.31
2022-08-07T17:32:02.691Z,15.15
2022-08-07T17:35:32.945Z,15.13
2022-08-07T17:38:12.741Z,14.86
2022-08-07T17:41:12.483Z,14.74
2022-08-07T17:44:06.487Z,14.77
2022-08-07T17:47:38.281Z,14.84
2022-08-07T17:50:19.048Z,14.90
2022-08-07T17:54:00.133Z,14.70
2022-08-07T17:56:28.728Z,14.69
2022-08-07T17:58:56.808Z,14.79
2022-08-07T18:01:37.233Z,14.78
2022-08-07T18:04:30.999Z,14.78
2022-08-07T18:07:20.832Z,14.62
2022-08-07T18:10:07.477Z,14.63
2022-08-07T18:12:59.153Z,14.41
2022-08-07T18:15:32.322Z,13.95
2022-08-07T18:18:46.373Z,14.40
2022-08-07T18:21:37.336Z,14.35
2022-08-07T18:23:58.344Z,14.32
2022-08-07T18:26:44.588Z,14.27
2022-08-07T18:30:06.398Z,14.24
2022-08-07T18:32:25.627Z,14.19
2022-08-07T18:35:20.595Z,14.11
2022-08-07T18:38:55.110Z,14.08
2022-08-07T18:41:45.163Z,13.92
2022-08-07T18:44:45.959Z,13.98
2022-08-07T18:47:44.608Z,13.95
2022-08-07T18:50:43.819Z,13.83
2022-08-07T18:53:39.162Z,13.89
2022-08-07T18:56:15.395Z,13.79
2022-08-07T18:58:51.300Z,13.85
2022-08-07T19:02:17.602Z,13.84
2022-08-07T19:04:54.802Z,14.00
2022-08-07T19:07:34.789Z,14.07
2022-08-07T19:10:18.569Z,14.00
2022-08-07T19:12:58.266Z,14.01
2022-08-07T19:16:05.302Z,14.11
2022-08-07T19:18:57.528Z,14.08
2022-08-07T19:21:56.180Z,14.07
2022-08-07T19:24:36.205Z,14.14
2022-08-07T19:28:29.620Z,14.10
2022-08-07T19:31:06.376Z,13.76
2022-08-07T19:32:52.525Z,13.64
2022-08-07T19:35:33.065Z,13.86
2022-08-07T19:38:03.416Z,14.02
2022-08-07T19:40:37.900Z,13.96
2022-08-07T19:43:49.535Z,13.85
2022-08-07T19:46:11.341Z,13.99
2022-08-07T19:48:54.076Z,14.03
2022-08-07T19:51:50.968Z,14.09
2022-08-07T19:54:34.870Z,14.06
2022-08-07T19:58:01.571Z,14.01
2022-08-07T19:59:56.110Z,13.89
2022-08-07T20:02:35.192Z,13.93
2022-08-07T20:05:08.772Z,13.61
2022-08-07T20:07:46.107Z,13.44
2022-08-07T20:10:37.083Z,13.67
2022-08-07T20:13:22.404Z,13.55
2022-08-07T20:15:54.228Z,13.71
2022-08-07T20:18:31.993Z,13.77
2022-08-07T20:21:02.269Z,13.54
2022-08-07T20:23:41.815Z,13.57
2022-08-07T20:26:12.998Z,13.70
2022-08-07T20:28:51.825Z,13.65
2022-08-07T20:31:21.800Z,13.66
2022-08-07T20:33:56.830Z,13.61
2022-08-07T20:36:27.270Z,13.56
2022-08-07T20:39:00.364Z,13.54
2022-08-07T20:41:50.670Z,13.45
2022-08-07T20:44:20.516Z,13.49
2022-08-07T20:47:05.748Z,13.43
2022-08-07T20:49:59.231Z,13.44
2022-08-07T20:52:51.298Z,13.42
2022-08-07T20:55:25.454Z,13.51
2022-08-07T20:58:00.153Z,13.50
2022-08-07T21:00:44.386Z,13.49
2022-08-07T21:03:19.219Z,13.53
2022-08-07T21:06:21.570Z,13.55
2022-08-07T21:09:01.838Z,13.54
2022-08-07T21:11:46.185Z,13.50
2022-08-07T21:14:32.797Z,13.61
2022-08-07T21:18:01.245Z,13.60
2022-08-07T21:20:05.322Z,13.67
2022-08-07T21:22:57.301Z,13.69
2022-08-07T21:25:39.090Z,13.66
2022-08-07T21:28:49.215Z,13.61
2022-08-07T21:32:41.786Z,13.69
2022-08-07T21:34:48.851Z,13.64
2022-08-07T21:37:25.866Z,13.77
2022-08-07T21:40:02.462Z,13.68
2022-08-07T21:42:48.610Z,13.74
2022-08-07T21:46:03.255Z,13.63
2022-08-07T21:48:27.640Z,13.68
2022-08-07T21:51:00.934Z,13.68
2022-08-07T21:53:37.195Z,13.75
2022-08-07T21:56:35.987Z,13.63
2022-08-07T21:59:09.788Z,13.71
2022-08-07T22:02:10.281Z,13.71
2022-08-07T22:04:37.114Z,13.73
2022-08-07T22:07:23.205Z,13.76
2022-08-07T22:10:06.557Z,13.70
2022-08-07T22:12:56.227Z,13.77
2022-08-07T22:16:43.567Z,13.80
2022-08-07T22:18:44.771Z,13.51
2022-08-07T22:21:19.090Z,13.68
2022-08-07T22:24:00.724Z,13.56
2022-08-07T22:27:17.731Z,13.55
2022-08-07T22:29:55.114Z,13.60
2022-08-07T22:32:37.600Z,13.44
2022-08-07T22:35:11.291Z,13.52
2022-08-07T22:38:07.431Z,13.37
2022-08-07T22:40:49.024Z,13.38
2022-08-07T22:43:23.486Z,13.36
2022-08-07T22:46:21.241Z,13.35
2022-08-07T22:48:56.239Z,13.37
2022-08-07T22:51:49.074Z,13.30
2022-08-07T22:54:48.959Z,13.33
2022-08-07T22:57:44.725Z,13.44
2022-08-07T23:00:16.223Z,13.36
2022-08-07T23:03:01.605Z,13.22
2022-08-07T23:06:15.663Z,13.21
2022-08-07T23:10:03.397Z,13.31
2022-08-07T23:12:42.992Z,13.31
2022-08-07T23:16:06.832Z,13.16
2022-08-07T23:18:32.100Z,13.19
2022-08-07T23:21:30.160Z,13.24
2022-08-07T23:24:50.138Z,13.25
2022-08-07T23:28:21.156Z,13.13
2022-08-07T23:31:06.704Z,13.21
2022-08-07T23:34:35.390Z,13.22
2022-08-07T23:37:19.398Z,13.18
2022-08-07T23:40:01.050Z,13.18
2022-08-07T23:43:07.693Z,13.20
2022-08-07T23:46:10.636Z,13.17
2022-08-07T23:48:43.902Z,13.25
2022-08-07T23:53:00.971Z,13.23
2022-08-07T23:54:19.928Z,13.27
2022-08-07T23:57:27.679Z,13.25
